createdAt,value
2022-08-11T00:00:19.574Z,25.70
2022-08-11T00:02:48.946Z,25.70
2022-08-11T00:05:17.270Z,25.70
2022-08-11T00:07:49.980Z,25.50
2022-08-11T00:10:18.466Z,25.60
2022-08-11T00:12:50.423Z,25.40
2022-08-11T00:15:17.456Z,25.50
2022-08-11T00:17:45.210Z,25.30
2022-08-11T00:20:16.607Z,25.30
2022-08-11T00:22:45.856Z,25.20
2022-08-11T00:38:24.487Z,24.80
2022-08-11T00:40:57.344Z,24.70
2022-08-11T00:43:50.401Z,24.70
2022-08-11T00:46:23.403Z,24.50
2022-08-11T00:49:02.730Z,24.60
2022-08-11T00:52:04.594Z,24.60
2022-08-11T00:55:02.900Z,24.60
2022-08-11T00:57:36.992Z,24.50
2022-08-11T01:00:16.043Z,24.10
2022-08-11T01:03:01.426Z,24.20
2022-08-11T01:05:46.997Z,24.10
2022-08-11T01:08:29.295Z,24.20
2022-08-11T01:11:11.783Z,24.00
2022-08-11T01:13:38.553Z,24.10
2022-08-11T01:16:20.670Z,24.00
2022-08-11T01:19:06.325Z,24.00
2022-08-11T01:21:35.987Z,24.20
2022-08-11T01:24:15.094Z,24.20
2022-08-11T01:27:00.553Z,24.40
2022-08-11T01:29:49.079Z,24.70
2022-08-11T01:32:19.143Z,24.70
2022-08-11T01:34:48.235Z,24.60
2022-08-11T01:37:24.101Z,24.80
2022-08-11T01:40:09.347Z,24.80
2022-08-11T01:42:58.202Z,24.70
2022-08-11T01:48:41.032Z,24.30
2022-08-11T01:51:26.220Z,24.30
2022-08-11T01:53:56.680Z,24.40
2022-08-11T02:00:42.514Z,24.20
2022-08-11T02:03:29.579Z,24.10
2022-08-11T02:08:54.391Z,24.10
2022-08-11T02:11:37.449Z,23.60
2022-08-11T02:14:13.745Z,23.50
2022-08-11T02:16:40.813Z,23.30
2022-08-11T02:19:35.417Z,23.60
2022-08-11T02:22:23.788Z,23.70
2022-08-11T02:25:00.131Z,24.00
2022-08-11T02:27:34.461Z,23.50
2022-08-11T02:30:07.503Z,23.10
2022-08-11T02:33:00.524Z,23.30
2022-08-11T02:35:42.604Z,23.40
2022-08-11T02:38:12.232Z,23.50
2022-08-11T02:40:50.017Z,23.60
2022-08-11T02:43:35.078Z,23.50
2022-08-11T02:46:17.938Z,23.10
2022-08-11T02:49:22.455Z,23.00
2022-08-11T02:52:14.340Z,22.80
2022-08-11T02:54:50.224Z,22.80
2022-08-11T03:01:35.978Z,23.30
2022-08-11T03:04:13.800Z,23.40
2022-08-11T03:06:58.211Z,23.00
2022-08-11T03:09:27.417Z,22.10
2022-08-11T03:12:35.147Z,21.50
2022-08-11T03:15:49.983Z,21.30
2022-08-11T03:18:33.303Z,21.00
2022-08-11T03:21:05.915Z,20.80
2022-08-11T03:23:35.536Z,20.60
2022-08-11T03:26:21.191Z,20.50
2022-08-11T03:28:53.678Z,20.40
2022-08-11T03:31:24.888Z,20.30
2022-08-11T03:34:07.256Z,20.10
2022-08-11T03:37:16.004Z,20.00
2022-08-11T03:39:59.029Z,19.90
2022-08-11T03:42:44.449Z,19.90
2022-08-11T03:45:11.163Z,19.80
2022-08-11T03:48:06.826Z,19.70
2022-08-11T03:50:56.257Z,19.60
2022-08-11T03:53:45.440Z,19.60
2022-08-11T03:56:50.891Z,19.50
2022-08-11T03:59:27.086Z,19.50
2022-08-11T04:02:18.037Z,19.40
2022-08-11T04:04:52.926Z,19.40
2022-08-11T04:07:23.507Z,19.30
2022-08-11T04:10:09.000Z,19.30
2022-08-11T04:12:47.766Z,19.30
2022-08-11T04:15:37.558Z,19.20
2022-08-11T04:18:23.180Z,19.20
2022-08-11T04:21:12.945Z,19.20
2022-08-11T04:24:33.408Z,19.20
2022-08-11T04:27:02.367Z,19.10
2022-08-11T04:30:03.134Z,19.10
2022-08-11T04:32:56.523Z,19.00
2022-08-11T04:35:48.594Z,19.00
2022-08-11T04:38:30.168Z,18.90
2022-08-11T04:41:16.390Z,18.90
2022-08-11T04:44:05.332Z,18.90
2022-08-11T04:46:51.061Z,18.90
2022-08-11T04:50:04.974Z,18.90
2022-08-11T04:53:10.899Z,18.90
2022-08-11T04:56:06.911Z,18.90
2022-08-11T04:59:11.585Z,18.90
2022-08-11T05:01:47.497Z,19.10
2022-08-11T05:04:52.951Z,19.10
2022-08-11T05:07:40.222Z,19.10
2022-08-11T05:10:17.077Z,19.10
2022-08-11T05:12:56.832Z,19.20
2022-08-11T05:15:53.546Z,19.30
2022-08-11T05:18:45.673Z,19.30
2022-08-11T05:21:44.430Z,19.30
2022-08-11T05:24:41.809Z,19.30
2022-08-11T05:27:31.180Z,19.40
2022-08-11T05:30:20.777Z,19.40
2022-08-11T05:36:12.608Z,19.40
2022-08-11T05:39:01.057Z,19.50
2022-08-11T05:41:55.210Z,19.50
2022-08-11T05:44:40.824Z,19.50
2022-08-11T05:47:29.330Z,19.60
2022-08-11T05:50:15.099Z,19.60
2022-08-11T05:53:05.061Z,19.60
2022-08-11T05:56:02.387Z,19.70
2022-08-11T05:59:08.038Z,19.80
2022-08-11T06:01:34.856Z,20.00
2022-08-11T06:04:15.785Z,20.10
2022-08-11T06:06:54.367Z,20.30
2022-08-11T06:09:51.022Z,20.30
2022-08-11T06:12:21.076Z,20.40
2022-08-11T06:14:55.393Z,20.50
2022-08-11T06:17:38.849Z,20.60
2022-08-11T06:20:09.768Z,20.90
2022-08-11T06:22:40.541Z,21.00
2022-08-11T06:25:09.168Z,21.00
2022-08-11T06:27:37.415Z,21.00
2022-08-11T06:30:20.550Z,21.20
2022-08-11T06:32:57.351Z,21.20
2022-08-11T06:35:39.580Z,21.30
2022-08-11T06:38:09.149Z,21.50
2022-08-11T06:41:08.622Z,21.50
2022-08-11T06:43:55.295Z,21.70
2022-08-11T06:46:44.457Z,21.90
2022-08-11T06:49:30.700Z,21.90
2022-08-11T06:52:35.351Z,22.00
2022-08-11T06:55:55.788Z,22.00
2022-08-11T07:02:46.135Z,22.20
2022-08-11T07:05:17.454Z,22.30
2022-08-11T07:08:34.716Z,22.40
2022-08-11T07:11:30.098Z,22.50
2022-08-11T07:14:21.881Z,22.60
2022-08-11T07:16:49.476Z,22.60
2022-08-11T07:19:57.978Z,22.70
2022-08-11T07:22:50.174Z,22.80
2022-08-11T07:25:35.885Z,22.90
2022-08-11T07:28:22.964Z,22.90
2022-08-11T07:31:03.066Z,23.00
2022-08-11T07:34:07.191Z,23.00
2022-08-11T07:36:31.893Z,23.10
2022-08-11T07:39:10.308Z,23.20
2022-08-11T07:41:37.236Z,23.20
2022-08-11T07:44:22.745Z,23.30
2022-08-11T07:47:24.494Z,23.30
2022-08-11T07:50:11.923Z,23.40
2022-08-11T07:52:45.437Z,23.60
2022-08-11T07:55:13.419Z,23.60
2022-08-11T07:58:16.839Z,23.60
2022-08-11T08:05:05.503Z,23.80
2022-08-11T08:07:51.392Z,23.80
2022-08-11T08:10:46.427Z,23.90
2022-08-11T08:13:32.399Z,24.00
2022-08-11T08:16:21.123Z,24.00
2022-08-11T08:18:54.080Z,24.00
2022-08-11T08:21:20.862Z,24.10
2022-08-11T08:23:53.738Z,24.20
2022-08-11T08:26:51.241Z,24.20
2022-08-11T08:29:38.886Z,24.30
2022-08-11T08:32:07.109Z,24.30
2022-08-11T08:34:39.118Z,24.40
2022-08-11T08:37:16.155Z,24.50
2022-08-11T08:40:03.672Z,24.60
2022-08-11T08:42:32.640Z,24.60
2022-08-11T08:45:08.454Z,24.60
2022-08-11T08:47:43.474Z,24.70
2022-08-11T08:50:21.427Z,24.80
2022-08-11T08:53:07.658Z,24.80
2022-08-11T08:55:34.708Z,25.00
2022-08-11T08:58:02.365Z,25.10
2022-08-11T09:01:06.939Z,25.10
2022-08-11T09:04:04.107Z,25.20
2022-08-11T09:06:30.436Z,25.30
2022-08-11T09:08:57.335Z,25.40
2022-08-11T09:11:44.527Z,25.50
2022-08-11T09:14:14.800Z,25.70
2022-08-11T09:16:43.674Z,25.80
2022-08-11T09:19:19.842Z,25.80
2022-08-11T09:22:12.476Z,25.90
2022-08-11T09:25:02.092Z,26.00
2022-08-11T09:27:29.248Z,26.20
2022-08-11T09:29:56.301Z,26.40
2022-08-11T09:32:23.467Z,26.60
2022-08-11T09:34:57.067Z,26.80
2022-08-11T09:37:55.282Z,27.00
2022-08-11T09:40:30.594Z,27.20
2022-08-11T09:43:25.165Z,27.40
2022-08-11T09:45:52.614Z,27.50
2022-08-11T09:48:20.582Z,27.70
2022-08-11T09:50:54.407Z,27.80
2022-08-11T09:53:35.303Z,28.00
2022-08-11T09:56:29.553Z,28.20
2022-08-11T09:58:56.795Z,28.30
2022-08-11T10:05:52.684Z,28.60
2022-08-11T10:08:28.233Z,28.60
2022-08-11T10:11:06.011Z,28.70
2022-08-11T10:16:56.083Z,28.80
2022-08-11T10:19:23.383Z,28.90
2022-08-11T10:22:15.110Z,29.00
2022-08-11T10:25:06.250Z,29.20
2022-08-11T10:28:08.960Z,29.00
2022-08-11T10:30:48.204Z,29.00
2022-08-11T10:33:42.882Z,29.00
2022-08-11T10:36:21.400Z,29.20
2022-08-11T10:42:07.631Z,29.50
2022-08-11T10:44:44.206Z,29.70
2022-08-11T10:47:30.312Z,29.80
2022-08-11T10:50:17.367Z,29.90
2022-08-11T10:53:05.522Z,30.00
2022-08-11T10:55:58.629Z,30.00
2022-08-11T10:58:50.010Z,30.30
2022-08-11T11:05:38.387Z,30.50
2022-08-11T11:11:23.726Z,30.70
2022-08-11T11:14:11.912Z,30.90
2022-08-11T11:16:52.472Z,31.00
2022-08-11T11:19:25.135Z,31.20
2022-08-11T11:26:06.600Z,31.70
2022-08-11T11:28:53.803Z,31.80
2022-08-11T11:31:40.203Z,32.00
2022-08-11T11:34:13.322Z,32.30
2022-08-11T11:36:52.336Z,32.50
2022-08-11T11:39:32.366Z,32.70
2022-08-11T11:42:14.365Z,32.70
2022-08-11T11:44:44.695Z,32.80
2022-08-11T11:47:37.233Z,33.00
2022-08-11T11:50:10.761Z,33.20
2022-08-11T11:52:38.919Z,33.40
2022-08-11T11:55:09.039Z,33.40
2022-08-11T11:58:02.529Z,33.50
2022-08-11T12:00:49.811Z,33.70
2022-08-11T12:03:54.610Z,33.90
2022-08-11T12:06:29.585Z,33.90
2022-08-11T12:08:57.797Z,34.00
2022-08-11T12:11:47.007Z,34.20
2022-08-11T12:14:16.047Z,34.30
2022-08-11T12:16:53.502Z,34.30
2022-08-11T12:19:26.302Z,34.20
2022-08-11T12:22:13.388Z,34.20
2022-08-11T12:25:00.014Z,34.10
2022-08-11T12:27:33.426Z,34.10
2022-08-11T12:30:09.769Z,34.40
2022-08-11T12:32:38.209Z,34.70
2022-08-11T12:35:14.484Z,34.80
2022-08-11T12:37:49.591Z,34.70
2022-08-11T12:43:56.559Z,35.10
2022-08-11T12:46:38.810Z,35.70
2022-08-11T12:49:30.317Z,35.70
2022-08-11T12:52:12.859Z,35.60
2022-08-11T12:55:13.141Z,35.70
2022-08-11T12:58:05.074Z,35.80
2022-08-11T13:00:50.637Z,35.90
2022-08-11T13:07:51.132Z,36.40
2022-08-11T13:10:43.601Z,36.20
2022-08-11T13:13:54.701Z,36.30
2022-08-11T13:16:05.733Z,36.40
2022-08-11T13:18:36.158Z,36.40
2022-08-11T13:21:03.368Z,36.30
2022-08-11T13:23:39.955Z,36.40
2022-08-11T13:26:47.136Z,36.70
2022-08-11T13:29:23.237Z,36.70
2022-08-11T13:31:50.721Z,36.80
2022-08-11T13:34:18.226Z,36.90
2022-08-11T13:36:47.824Z,37.10
2022-08-11T13:39:15.654Z,37.30
2022-08-11T13:41:48.598Z,37.40
2022-08-11T13:44:21.573Z,37.40
2022-08-11T13:46:52.953Z,37.50
2022-08-11T13:49:20.893Z,37.20
2022-08-11T13:51:48.272Z,37.50
2022-08-11T13:54:19.694Z,37.60
2022-08-11T13:56:47.839Z,37.90
2022-08-11T13:59:15.552Z,37.90
2022-08-11T14:02:20.321Z,37.70
2022-08-11T14:08:52.982Z,37.90
2022-08-11T14:12:21.778Z,38.00
2022-08-11T14:14:26.545Z,38.00
2022-08-11T14:16:54.446Z,37.70
2022-08-11T14:19:22.677Z,38.30
2022-08-11T14:22:09.916Z,38.60
2022-08-11T14:24:38.132Z,38.90
2022-08-11T14:28:30.942Z,38.90
2022-08-11T14:30:00.792Z,39.20
2022-08-11T14:32:27.816Z,39.80
2022-08-11T14:34:54.883Z,39.90
2022-08-11T14:37:22.839Z,39.70
2022-08-11T14:39:57.180Z,39.80
2022-08-11T14:42:46.051Z,39.90
2022-08-11T14:45:57.446Z,40.00
2022-08-11T14:48:20.745Z,40.10
2022-08-11T14:50:47.906Z,40.00
2022-08-11T14:53:17.879Z,39.80
2022-08-11T14:56:04.567Z,39.90
2022-08-11T14:58:33.899Z,39.80
2022-08-11T15:01:01.407Z,40.00
2022-08-11T15:03:33.531Z,40.20
2022-08-11T15:10:19.008Z,40.70
2022-08-11T15:12:46.693Z,41.30
2022-08-11T15:15:32.536Z,41.30
2022-08-11T15:18:00.395Z,40.80
2022-08-11T15:20:46.436Z,40.60
2022-08-11T15:23:31.842Z,40.50
2022-08-11T15:26:06.834Z,40.80
2022-08-11T15:28:56.029Z,40.70
2022-08-11T15:31:42.456Z,40.80
2022-08-11T15:34:35.894Z,40.80
2022-08-11T15:37:25.681Z,40.40
2022-08-11T15:40:31.212Z,40.20
2022-08-11T15:43:21.384Z,40.30
2022-08-11T15:45:52.283Z,40.30
2022-08-11T15:48:34.259Z,40.40
2022-08-11T15:51:25.382Z,40.70
2022-08-11T15:53:56.607Z,40.90
2022-08-11T15:56:26.049Z,40.80
2022-08-11T15:59:42.343Z,40.70
2022-08-11T16:02:12.748Z,40.80
2022-08-11T16:05:45.915Z,40.50
2022-08-11T16:08:07.863Z,39.70
2022-08-11T16:10:38.110Z,39.60
2022-08-11T16:13:11.307Z,39.70
2022-08-11T16:16:04.003Z,39.60
2022-08-11T16:18:54.004Z,39.90
2022-08-11T16:21:42.197Z,39.50
2022-08-11T16:27:01.456Z,39.20
2022-08-11T16:27:14.535Z,39.10
2022-08-11T16:29:44.433Z,38.90
2022-08-11T16:32:19.079Z,38.70
2022-08-11T16:35:06.699Z,38.50
2022-08-11T16:37:52.746Z,38.30
2022-08-11T16:40:20.913Z,38.40
2022-08-11T16:43:11.279Z,38.30
2022-08-11T16:45:58.306Z,38.10
2022-08-11T16:48:36.415Z,37.90
2022-08-11T16:51:05.833Z,37.70
2022-08-11T16:53:59.529Z,37.80
2022-08-11T16:56:21.954Z,38.10
2022-08-11T16:59:10.882Z,38.20
2022-08-11T17:01:37.870Z,38.30
2022-08-11T17:04:31.318Z,38.00
2022-08-11T17:11:17.389Z,37.20
2022-08-11T17:13:57.233Z,37.20
2022-08-11T17:16:36.969Z,37.30
2022-08-11T17:19:03.733Z,37.20
2022-08-11T17:21:35.849Z,37.10
2022-08-11T17:24:10.429Z,36.80
2022-08-11T17:26:55.718Z,36.50
2022-08-11T17:29:30.813Z,36.40
2022-08-11T17:32:16.822Z,36.20
2022-08-11T17:35:03.198Z,36.10
2022-08-11T17:37:31.248Z,36.10
2022-08-11T17:39:58.478Z,36.00
2022-08-11T17:42:47.724Z,36.00
2022-08-11T17:45:34.622Z,35.70
2022-08-11T17:48:20.676Z,35.40
2022-08-11T17:50:49.174Z,35.10
2022-08-11T17:53:34.949Z,34.70
2022-08-11T17:56:21.196Z,34.60
2022-08-11T17:59:06.881Z,34.50
2022-08-11T18:01:36.286Z,34.50
2022-08-11T18:04:05.148Z,34.40
2022-08-11T18:07:09.254Z,34.60
2022-08-11T18:09:54.859Z,34.50
2022-08-11T18:12:40.408Z,34.20
2022-08-11T18:15:27.086Z,33.80
2022-08-11T18:18:17.414Z,33.50
2022-08-11T18:21:04.616Z,33.00
2022-08-11T18:23:49.831Z,32.70
2022-08-11T18:26:53.907Z,32.40
2022-08-11T18:29:58.929Z,32.10
2022-08-11T18:36:02.987Z,31.70
2022-08-11T18:38:48.574Z,31.50
2022-08-11T18:41:35.477Z,31.40
2022-08-11T18:44:22.534Z,31.20
2022-08-11T18:47:09.147Z,31.00
2022-08-11T18:50:01.734Z,30.80
2022-08-11T18:52:49.671Z,30.70
2022-08-11T18:55:36.132Z,30.40
2022-08-11T19:01:07.979Z,30.00
2022-08-11T19:03:54.221Z,29.80
2022-08-11T19:10:40.308Z,29.70
2022-08-11T19:13:26.326Z,29.70
2022-08-11T19:16:13.160Z,29.60
2022-08-11T19:18:59.690Z,29.50
2022-08-11T19:21:46.712Z,29.40
2022-08-11T19:24:32.450Z,29.20
2022-08-11T19:27:18.836Z,29.10
2022-08-11T19:30:13.133Z,29.10
2022-08-11T19:32:59.548Z,29.00
2022-08-11T19:35:45.302Z,28.80
2022-08-11T19:57:14.852Z,28.20
2022-08-11T20:00:00.260Z,27.90
2022-08-11T20:02:46.828Z,27.90
2022-08-11T20:05:32.394Z,27.80
2022-08-11T20:12:00.847Z,27.90
2022-08-11T20:14:49.101Z,27.90
2022-08-11T20:17:35.270Z,27.90
2022-08-11T20:20:22.991Z,27.90
2022-08-11T20:23:11.303Z,27.90
2022-08-11T20:26:08.559Z,27.80
2022-08-11T20:29:01.391Z,27.70
2022-08-11T20:31:46.722Z,27.70
2022-08-11T20:34:32.641Z,27.60
2022-08-11T20:37:18.623Z,27.70
2022-08-11T20:40:04.395Z,27.50
2022-08-11T20:42:51.406Z,27.60
2022-08-11T20:45:37.967Z,27.60
2022-08-11T20:48:40.053Z,27.60
2022-08-11T20:51:27.283Z,27.60
2022-08-11T20:54:19.314Z,27.50
2022-08-11T20:57:35.581Z,27.60
2022-08-11T21:00:39.294Z,27.50
2022-08-11T21:03:35.470Z,27.50
2022-08-11T21:17:55.722Z,27.30
2022-08-11T21:20:45.204Z,27.30
2022-08-11T21:23:31.536Z,27.30
2022-08-11T21:26:27.350Z,27.20
2022-08-11T21:29:32.015Z,27.20
2022-08-11T21:32:18.523Z,27.20
2022-08-11T21:35:22.795Z,27.20
2022-08-11T21:38:09.809Z,27.10
2022-08-11T21:40:57.456Z,27.10
2022-08-11T21:47:44.283Z,27.00
2022-08-11T21:50:30.932Z,27.00
2022-08-11T21:53:19.208Z,27.00
2022-08-11T21:56:05.832Z,27.00
2022-08-11T21:58:52.238Z,27.10
2022-08-11T22:01:38.783Z,27.00
2022-08-11T22:04:26.386Z,26.90
2022-08-11T22:07:11.931Z,26.90
2022-08-11T22:09:58.081Z,26.90
2022-08-11T22:12:45.208Z,26.90
2022-08-11T22:15:31.877Z,26.80
2022-08-11T22:18:19.713Z,26.90
2022-08-11T22:22:02.827Z,26.80
2022-08-11T22:24:30.472Z,26.80
2022-08-11T22:27:16.099Z,26.70
2022-08-11T22:30:08.478Z,26.70
2022-08-11T22:32:54.801Z,26.70
2022-08-11T22:35:41.312Z,26.70
2022-08-11T22:38:27.311Z,26.70
2022-08-11T22:41:13.455Z,26.80
2022-08-11T22:44:17.849Z,26.70
2022-08-11T22:47:03.940Z,26.70
2022-08-11T22:49:57.854Z,26.70
2022-08-11T22:52:44.536Z,26.60
2022-08-11T22:55:30.929Z,26.70
2022-08-11T22:58:20.818Z,26.60
2022-08-11T23:01:07.139Z,26.60
2022-08-11T23:03:52.582Z,26.60
2022-08-11T23:06:38.672Z,26.50
2022-08-11T23:09:24.766Z,26.40
2022-08-11T23:12:10.775Z,26.30
2022-08-11T23:14:59.303Z,26.40
2022-08-11T23:17:45.616Z,26.50
2022-08-11T23:20:40.978Z,26.50
2022-08-11T23:23:28.457Z,26.50
2022-08-11T23:26:14.884Z,26.40
2022-08-11T23:29:05.059Z,26.50
2022-08-11T23:31:52.501Z,26.40
2022-08-11T23:35:02.920Z,26.20
2022-08-11T23:37:45.061Z,26.20
2022-08-11T23:40:30.737Z,26.20
2022-08-11T23:53:39.744Z,26.30
2022-08-11T23:56:25.429Z,26.20
2022-08-11T23:59:15.111Z,26.10
